Data for 08/11/2017

Time Sea-Level Adjusted Pressure Absolute Pressure Temperature Relative Humidity Dew Point   
(mb) (inHg) (mb) (inHg) (C) (F) (%) (C) (F)
00:05 1023 30.21 852 25.16 18.3 65 25 -1.9 28.5
00:10 1023 30.21 852 25.16 17.7 63.8 28 -0.8 30.5
00:15 1023 30.21 852 25.16 16.7 62 29 -1.1 30
00:20 1023 30.21 852 25.16 16.5 61.7 29 -1.5 29.4
00:25 1023 30.21 852 25.16 16.7 62 30 -1.1 30.1
00:30 1023 30.21 852 25.16 16.5 61.8 29 -1.7 29
00:35 1023 30.21 852 25.16 16.6 62 28 -1.8 28.7
00:40 1023 30.21 852 25.16 16.6 61.9 29 -1.4 29.5
00:45 1023 30.21 852 25.16 16.3 61.4 30 -1.1 30
00:50 1024 30.24 853 25.19 16.3 61.3 30 -1.2 29.8
00:55 1024 30.24 853 25.19 16.4 61.6 32 -0.2 31.6
01:00 1024 30.24 853 25.19 16.4 61.6 34 0.6 33.1
01:05 1024 30.24 853 25.19 15.9 60.6 36 1 33.8
01:10 1024 30.24 853 25.19 15.5 59.8 38 1.4 34.6
01:15 1024 30.24 853 25.19 15.2 59.3 39 1.5 34.7
01:20 1024 30.24 853 25.19 15.2 59.3 39 1.4 34.6
01:25 1024 30.24 853 25.19 15.1 59.3 39 1.5 34.6
01:30 1024 30.24 853 25.19 15.1 59.2 39 1.5 34.7
01:35 1024 30.24 853 25.19 15 58.9 40 1.4 34.6
01:40 1024 30.24 853 25.19 14.9 58.8 40 1.4 34.5
01:45 1023 30.21 853 25.19 15 58.9 38 1 33.7
01:50 1024 30.24 853 25.19 15.2 59.4 38 1.1 34
01:55 1024 30.24 853 25.19 15.3 59.5 36 0.5 33
02:00 1023 30.21 853 25.19 15.7 60.2 36 0.6 33
02:05 1023 30.21 853 25.19 15.9 60.5 34 0.3 32.5
02:10 1023 30.21 853 25.19 15.7 60.2 36 0.7 33.3
02:15 1023 30.21 853 25.19 15.4 59.7 36 0.3 32.6
02:20 1023 30.21 853 25.19 15.5 59.9 36 0.6 33
02:25 1023 30.21 853 25.19 15.7 60.2 35 0.3 32.6
02:30 1023 30.21 853 25.19 15.7 60.3 35 0.6 33
02:35 1023 30.21 853 25.19 15.4 59.8 36 0.7 33.3
02:40 1023 30.21 852 25.16 15.3 59.5 35 -0 31.9
02:45 1023 30.21 852 25.16 15.6 60.2 33 -0.5 31.2
02:50 1023 30.21 852 25.16 16.1 61 33 -0.2 31.7
02:55 1023 30.21 852 25.16 15.6 60.1 37 1.2 34.1
03:00 1023 30.21 852 25.16 14.9 58.8 38 0.8 33.5
03:05 1023 30.21 852 25.16 14.9 58.9 37 0.3 32.6
03:10 1023 30.21 852 25.16 15.2 59.4 35 0.1 32.1
03:15 1023 30.21 853 25.19 15.5 59.8 34 -0.3 31.5
03:20 1023 30.21 852 25.16 15.7 60.2 34 0 32
03:25 1023 30.21 852 25.16 15.5 59.8 35 0.3 32.5
03:30 1023 30.21 852 25.16 15.2 59.4 36 0.2 32.3
03:35 1023 30.21 852 25.16 15.1 59.2 36 0.2 32.4
03:40 1023 30.21 852 25.16 15.1 59.2 35 -0.1 31.9
03:45 1023 30.21 852 25.16 15.2 59.4 36 0.3 32.5
03:50 1023 30.21 852 25.16 15 58.9 37 0.5 33
03:55 1023 30.21 852 25.16 14.6 58.3 38 0.4 32.7
04:00 1023 30.21 852 25.16 14.6 58.2 37 0.3 32.5
04:05 1023 30.21 852 25.16 14.6 58.3 37 0.2 32.3
04:10 1023 30.21 852 25.16 14.7 58.4 37 0.2 32.3
04:15 1023 30.21 852 25.16 14.7 58.5 37 0.3 32.6
04:20 1023 30.21 852 25.16 14.6 58.3 39 0.8 33.4
04:25 1023 30.21 852 25.16 14.5 58 38 0.5 33
04:30 1023 30.21 852 25.16 14.5 58 38 0.3 32.5
04:35 1023 30.21 852 25.16 14.5 58 39 0.6 33.2
04:40 1023 30.21 852 25.16 14.3 57.7 38 0.4 32.6
04:45 1023 30.21 852 25.16 14.3 57.8 38 0.4 32.8
04:50 1023 30.21 852 25.16 14.3 57.7 38 0.2 32.4
04:55 1023 30.21 852 25.16 14.3 57.8 39 0.5 32.9
05:00 1023 30.21 852 25.16 14.2 57.5 40 0.7 33.2
05:05 1023 30.21 852 25.16 13.9 57 41 0.8 33.5
05:10 1023 30.21 852 25.16 13.7 56.6 41 0.8 33.5
05:15 1023 30.21 852 25.16 13.6 56.5 42 0.9 33.6
05:20 1023 30.21 852 25.16 13.7 56.6 42 1.1 33.9
05:25 1023 30.21 853 25.19 13.7 56.6 42 1 33.8
05:30 1023 30.21 853 25.19 13.8 56.8 42 1.1 34
05:35 1023 30.21 853 25.19 13.6 56.5 41 0.6 33
05:40 1023 30.21 853 25.19 13.7 56.7 41 0.7 33.3
05:45 1023 30.21 853 25.19 13.9 57 40 0.7 33.3
05:50 1023 30.21 853 25.19 14 57.2 43 1.6 34.8
05:55 1023 30.21 853 25.19 13.8 56.8 44 1.8 35.2
06:00 1023 30.21 853 25.19 13.3 56 48 2.5 36.5
06:05 1023 30.21 853 25.19 12.8 55.1 50 2.8 37.1
06:10 1023 30.21 853 25.19 12.4 54.4 51 2.6 36.7
06:15 1023 30.21 852 25.16 12.6 54.6 50 2.5 36.5
06:20 1023 30.21 853 25.19 12.7 54.8 47 1.8 35.2
06:25 1023 30.21 853 25.19 12.9 55.3 47 2 35.6
06:30 1023 30.21 853 25.19 13.2 55.7 47 2.1 35.8
06:35 1024 30.24 853 25.19 13.2 55.8 47 2.4 36.3
06:40 1024 30.24 853 25.19 13.5 56.4 44 1.6 34.9
06:45 1024 30.24 853 25.19 13.8 56.8 44 1.8 35.3
06:50 1023 30.21 853 25.19 14 57.2 44 2 35.6
06:55 1023 30.21 853 25.19 14 57.2 47 2.9 37.3
07:00 1023 30.21 853 25.19 13.9 57 48 3.2 37.8
07:05 1024 30.24 853 25.19 14.1 57.3 47 3.2 37.7
07:10 1024 30.24 853 25.19 14.4 57.9 47 3.4 38.2
07:15 1024 30.24 853 25.19 14.6 58.2 47 3.6 38.5
07:20 1023 30.21 853 25.19 14.9 58.8 46 3.6 38.4
07:25 1023 30.21 853 25.19 15.4 59.7 46 4 39.2
07:30 1023 30.21 852 25.16 15.8 60.5 47 4.6 40.2
07:35 1023 30.21 852 25.16 15.8 60.4 44 3.7 38.7
07:40 1023 30.21 852 25.16 15.7 60.3 44 3.7 38.7
07:45 1023 30.21 852 25.16 15.8 60.5 43 3.5 38.2
07:50 1023 30.21 852 25.16 16.1 61 41 3 37.3
07:55 1023 30.21 852 25.16 16.2 61.2 40 2.8 37
08:00 1023 30.21 852 25.16 16.2 61.1 40 2.6 36.6
08:05 1023 30.21 852 25.16 16.3 61.4 38 2.1 35.7
08:10 1023 30.21 852 25.16 16.5 61.7 38 2.4 36.4
08:15 1023 30.21 852 25.16 17 62.6 36 1.9 35.5
08:20 1023 30.21 852 25.16 17.6 63.6 34 1.6 34.9
08:25 1023 30.21 852 25.16 17.9 64.3 33 1.3 34.4
08:30 1023 30.21 852 25.16 18.3 65 30 0.6 33.2
08:35 1023 30.21 852 25.16 18.7 65.7 30 0.8 33.5
08:40 1023 30.21 852 25.16 19.1 66.5 28 0.2 32.4
08:45 1023 30.21 852 25.16 19.6 67.3 28 0.9 33.6
08:50 1023 30.21 852 25.16 20 68.1 27 0.6 33.2
08:55 1023 30.21 852 25.16 20.6 69.1 27 1.4 34.5
09:00 1023 30.21 852 25.16 20.7 69.2 27 1.4 34.5
09:05 1023 30.21 852 25.16 20.8 69.5 29 2.3 36.1
09:10 1023 30.21 852 25.16 21 69.8 29 2.6 36.6
09:15 1023 30.21 852 25.16 21.1 70 30 2.9 37.2
09:20 1023 30.21 852 25.16 21 69.9 29 2.3 36.1
09:25 1023 30.21 852 25.16 21.3 70.3 29 2.5 36.5
09:30 1023 30.21 852 25.16 21.5 70.8 29 2.8 37
09:35 1023 30.21 852 25.16 21.4 70.5 29 2.8 37
09:40 1023 30.21 852 25.16 21.6 70.8 27 2.2 35.9
09:45 1023 30.21 852 25.16 21.7 71.1 29 2.9 37.2
09:50 1023 30.21 852 25.16 21.9 71.4 27 2.1 35.8
09:55 1023 30.21 852 25.16 22.4 72.2 26 2.3 36.1
10:00 1023 30.21 852 25.16 22 71.6 27 2.1 35.8
10:05 1023 30.21 852 25.16 21.6 70.9 28 2.8 37
10:10 1023 30.21 852 25.16 22.3 72.2 25 1.7 35.1
10:15 1023 30.21 852 25.16 22 71.7 26 1.6 34.9
10:20 1023 30.21 852 25.16 21.6 70.9 26 1.5 34.8
10:25 1023 30.21 852 25.16 22.6 72.7 26 2.2 35.9
10:30 1023 30.21 852 25.16 23 73.4 26 2.7 36.8
10:35 1023 30.21 852 25.16 22.2 71.9 26 2 35.7
10:40 1023 30.21 852 25.16 23.1 73.6 25 2.3 36.1
10:45 1023 30.21 852 25.16 23.4 74 25 2.2 36
10:50 1023 30.21 852 25.16 23.3 74 24 2 35.5
10:55 1023 30.21 852 25.16 23.7 74.6 23 1.6 34.9
11:00 1023 30.21 852 25.16 24.1 75.3 23 1.7 35
11:05 1022 30.18 852 25.16 24.3 75.8 23 1.9 35.3
11:10 1022 30.18 852 25.16 23.8 74.8 24 2.4 36.4
11:15 1022 30.18 852 25.16 23.5 74.3 24 1.7 35.1
11:20 1022 30.18 852 25.16 23.2 73.7 25 2.5 36.6
11:25 1022 30.18 852 25.16 23.5 74.3 25 2.6 36.7
11:30 1022 30.18 851 25.13 23.3 73.9 25 2.6 36.8
11:35 1022 30.18 851 25.13 24.3 75.7 22 1.6 34.9
11:40 1022 30.18 851 25.13 24.9 76.9 22 2 35.5
11:45 1022 30.18 851 25.13 24.2 75.5 23 2.2 36
11:50 1022 30.18 851 25.13 24.4 76 22 1.6 34.8
11:55 1022 30.18 851 25.13 25.1 77.1 21 1.7 35.1
12:00 1022 30.18 851 25.13 25.1 77.3 21 1.6 34.9
12:05 1022 30.18 851 25.13 25.7 78.3 21 2.1 35.8
12:10 1022 30.18 851 25.13 24.8 76.6 24 3 37.4
12:15 1022 30.18 851 25.13 25.1 77.1 20 1.1 34
12:20 1022 30.18 851 25.13 25.6 78.1 21 1.9 35.4
12:25 1022 30.18 851 25.13 26 78.8 20 1.2 34.2
12:30 1022 30.18 851 25.13 26.6 79.8 19 1.7 35
12:35 1022 30.18 851 25.13 26.7 80 19 1.4 34.6
12:40 1022 30.18 851 25.13 26.8 80.2 19 1.4 34.5
12:45 1022 30.18 851 25.13 25.9 78.6 19 0.7 33.2
12:50 1021 30.15 851 25.13 26.3 79.4 18 0.4 32.7
12:55 1021 30.15 851 25.13 26 78.8 18 0.3 32.6
13:00 1021 30.15 851 25.13 26.4 79.5 18 0.6 33
13:05 1021 30.15 850 25.1 27.4 81.3 16 -0.4 31.3
13:10 1021 30.15 850 25.1 27.6 81.6 17 0.4 32.7
13:15 1021 30.15 850 25.1 27.7 81.9 16 -0.3 31.5
13:20 1021 30.15 850 25.1 28.1 82.5 15 -0.3 31.5
13:25 1021 30.15 850 25.1 27.5 81.4 18 1 33.8
13:30 1021 30.15 850 25.1 27 80.6 18 0.8 33.5
13:35 1021 30.15 850 25.1 27.6 81.6 16 0 32.1
13:40 1021 30.15 850 25.1 27.7 81.9 15 -0.9 30.4
13:45 1021 30.15 850 25.1 28 82.4 14 -1.5 29.2
13:50 1021 30.15 850 25.1 28.5 83.3 14 -1.2 29.9
13:55 1021 30.15 850 25.1 28.5 83.2 14 -1.2 29.9
14:00 1021 30.15 850 25.1 28.5 83.3 14 -1.3 29.6
14:05 1021 30.15 850 25.1 28.5 83.3 13 -2.7 27.1
14:10 1020 30.12 850 25.1 27.8 82.1 13 -2.4 27.6
14:15 1020 30.12 850 25.1 27.4 81.3 14 -2.5 27.6
14:20 1020 30.12 850 25.1 28.1 82.5 13 -2.5 27.5
14:25 1020 30.12 849 25.07 28.6 83.4 14 -1.4 29.4
14:30 1020 30.12 849 25.07 28.7 83.6 14 -0.9 30.3
14:35 1020 30.12 849 25.07 28.3 82.9 14 -1.1 30.1
14:40 1020 30.12 849 25.07 28.1 82.7 13 -2.3 27.9
14:45 1020 30.12 849 25.07 27.7 81.9 13 -2.5 27.5
14:50 1020 30.12 849 25.07 27.4 81.3 14 -2.3 27.8
14:55 1020 30.12 849 25.07 28 82.5 14 -1.6 29.1
15:00 1020 30.12 849 25.07 28.2 82.8 15 -0.6 31
15:05 1020 30.12 849 25.07 28.2 82.7 15 -1 30.2
15:10 1020 30.12 849 25.07 28.6 83.4 16 0.7 33.3
15:15 1020 30.12 849 25.07 28.7 83.6 17 1.3 34.3
15:20 1020 30.12 849 25.07 28.2 82.8 14 -1 30.1
15:25 1020 30.12 849 25.07 28.6 83.4 15 -0.4 31.2
15:30 1020 30.12 849 25.07 28.7 83.6 15 -0.4 31.3
15:35 1020 30.12 849 25.07 28.7 83.6 14 -0.7 30.8
15:40 1020 30.12 849 25.07 28.5 83.3 15 -0.5 31.1
15:45 1020 30.12 849 25.07 28.9 84.1 14 -0.5 31
15:50 1020 30.12 849 25.07 28.8 83.9 14 -0.7 30.8
15:55 1020 30.12 849 25.07 29.2 84.5 15 -0.1 31.9
16:00 1020 30.12 849 25.07 28.8 83.9 14 -0.8 30.6
16:05 1020 30.12 849 25.07 27.6 81.6 15 -1.1 30.1
16:10 1020 30.12 849 25.07 27.1 80.7 15 -1.5 29.4
16:15 1020 30.12 849 25.07 27 80.6 17 -0 31.9
16:20 1020 30.12 849 25.07 27.7 81.8 15 -1 30.2
16:25 1020 30.12 849 25.07 28.1 82.6 15 -0.8 30.5
16:30 1019 30.09 849 25.07 28.2 82.7 15 -0.4 31.3
16:35 1019 30.09 849 25.07 28.2 82.8 15 -0.9 30.5
16:40 1019 30.09 849 25.07 28.3 82.9 15 -0.6 30.9
16:45 1019 30.09 849 25.07 28.3 82.9 15 -0.3 31.5
16:50 1019 30.09 848 25.04 28 82.4 17 0.7 33.3
16:55 1019 30.09 848 25.04 27.9 82.2 15 -1 30.2
17:00 1019 30.09 848 25.04 27.5 81.5 17 0.4 32.8
17:05 1019 30.09 848 25.04 27.1 80.7 16 -0.7 30.8
17:10 1019 30.09 848 25.04 27.4 81.3 15 -1.1 30
17:15 1019 30.09 848 25.04 27.7 81.9 17 0.5 32.9
17:20 1019 30.09 848 25.04 27.9 82.3 15 -0.4 31.3
17:25 1019 30.09 848 25.04 28 82.3 15 -0.4 31.3
17:30 1019 30.09 848 25.04 27.9 82.1 15 -0.6 30.9
17:35 1019 30.09 848 25.04 27.9 82.1 16 -0.4 31.3
17:40 1019 30.09 848 25.04 27.9 82.2 16 -0.4 31.4
17:45 1019 30.09 848 25.04 27.8 82.1 15 -0.6 30.8
17:50 1019 30.09 848 25.04 27.6 81.7 17 0.8 33.4
17:55 1019 30.09 848 25.04 27.1 80.7 18 1.1 34
18:00 1019 30.09 848 25.04 26.9 80.4 17 0.3 32.5
18:05 1019 30.09 848 25.04 26.7 80.1 19 1.3 34.3
18:10 1019 30.09 848 25.04 26.5 79.7 20 2.2 36
18:15 1019 30.09 848 25.04 26.4 79.5 21 2.7 36.8
18:20 1019 30.09 848 25.04 26.1 79 23 3.8 38.9
18:25 1019 30.09 848 25.04 25.7 78.2 24 3.9 39.1
18:30 1019 30.09 848 25.04 25.4 77.6 25 4.4 39.9
18:35 1019 30.09 848 25.04 25.1 77.2 25 4 39.1
18:40 1019 30.09 848 25.04 25 77 25 3.9 39
18:45 1019 30.09 848 25.04 24.9 76.8 23 2.9 37.2
18:50 1019 30.09 848 25.04 24.9 76.8 23 2.6 36.6
18:55 1019 30.09 848 25.04 25 76.9 23 2.4 36.4
19:00 1019 30.09 848 25.04 24.7 76.5 23 2.2 35.9
19:05 1019 30.09 848 25.04 24.3 75.8 23 2.1 35.7
19:10 1019 30.09 848 25.04 24.1 75.4 23 2 35.7
19:15 1019 30.09 849 25.07 24 75.3 23 1.8 35.2
19:20 1019 30.09 849 25.07 24 75.2 23 2 35.6
19:25 1019 30.09 849 25.07 23.9 75 24 2.3 36.2
19:30 1019 30.09 849 25.07 23.8 74.8 23 1.5 34.8
19:35 1019 30.09 849 25.07 23.5 74.3 23 1.6 34.9
19:40 1019 30.09 849 25.07 23.3 73.9 23 1.1 34.1
19:45 1019 30.09 849 25.07 23.2 73.8 23 1.1 33.9
19:50 1019 30.09 849 25.07 23.3 73.9 22 0.6 33.2
19:55 1019 30.09 849 25.07 23.5 74.3 22 1.1 33.9
20:00 1020 30.12 849 25.07 23.4 74 23 1 33.8
20:05 1020 30.12 849 25.07 23.3 73.9 23 1 33.9
20:10 1020 30.12 849 25.07 23.1 73.6 23 1.3 34.3
20:15 1020 30.12 849 25.07 22.9 73.2 24 1.6 34.9
20:20 1020 30.12 849 25.07 22.5 72.6 27 2.7 36.9
20:25 1020 30.12 850 25.1 22.1 71.7 30 3.9 39
20:30 1021 30.15 850 25.1 21.4 70.5 33 4.7 40.5
20:35 1021 30.15 850 25.1 20.7 69.3 36 5.4 41.7
20:40 1021 30.15 850 25.1 20.3 68.5 36 4.7 40.5
20:45 1021 30.15 850 25.1 19.9 67.8 38 5.4 41.7
20:50 1021 30.15 850 25.1 19.7 67.5 35 3.9 39
20:55 1021 30.15 850 25.1 20.2 68.3 33 3.7 38.7
21:00 1021 30.15 850 25.1 20.1 68.2 36 4.7 40.5
21:05 1021 30.15 850 25.1 19.2 66.5 43 6.5 43.7
21:10 1021 30.15 850 25.1 18.4 65 45 6.3 43.3
21:15 1021 30.15 850 25.1 18.3 64.9 44 5.9 42.7
21:20 1021 30.15 850 25.1 18.2 64.7 44 5.9 42.7
21:25 1021 30.15 851 25.13 18.1 64.6 45 6 42.8
21:30 1021 30.15 851 25.13 17.9 64.2 46 6.2 43.2
21:35 1021 30.15 850 25.1 17.6 63.7 48 6.6 43.8
21:40 1021 30.15 850 25.1 17.4 63.3 49 6.7 44
21:45 1021 30.15 850 25.1 17.2 63 48 6.3 43.4
21:50 1021 30.15 850 25.1 17.3 63.2 48 6.2 43.2
21:55 1021 30.15 850 25.1 17.3 63.1 48 6.4 43.5
22:00 1021 30.15 850 25.1 17.3 63.1 48 6.4 43.5
22:05 1021 30.15 850 25.1 17.2 63 49 6.4 43.6
22:10 1021 30.15 850 25.1 17.2 62.9 49 6.4 43.4
22:15 1021 30.15 850 25.1 17.2 62.9 49 6.4 43.6
22:20 1021 30.15 850 25.1 17 62.7 49 6.4 43.6
22:25 1021 30.15 850 25.1 17 62.5 50 6.4 43.6
22:30 1021 30.15 850 25.1 16.9 62.4 50 6.4 43.5
22:35 1021 30.15 850 25.1 16.8 62.3 50 6.4 43.5
22:40 1021 30.15 850 25.1 16.8 62.2 49 6.2 43.2
22:45 1021 30.15 850 25.1 16.8 62.3 49 6.3 43.3
22:50 1021 30.15 850 25.1 16.8 62.2 49 6.2 43.1
22:55 1021 30.15 850 25.1 16.7 62 49 6.1 43
23:00 1021 30.15 850 25.1 16.7 62.1 49 6 42.8
23:05 1021 30.15 850 25.1 16.7 62.1 48 5.8 42.4
23:10 1021 30.15 850 25.1 16.8 62.2 48 5.7 42.2
23:15 1021 30.15 850 25.1 16.7 62.1 48 5.7 42.3
23:20 1021 30.15 850 25.1 16.7 62 48 5.6 42
23:25 1021 30.15 850 25.1 16.8 62.2 46 5.3 41.5
23:30 1021 30.15 850 25.1 16.8 62.3 47 5.5 41.9
23:35 1021 30.15 850 25.1 16.8 62.2 46 5.3 41.6
23:40 1021 30.15 850 25.1 16.9 62.4 45 5 41.1
23:45 1021 30.15 850 25.1 16.9 62.4 46 5.4 41.7
23:50 1021 30.15 850 25.1 16.6 61.8 48 5.5 41.9
23:55 1021 30.15 850 25.1 16.3 61.3 49 5.6 42
24:00 1021 30.15 850 25.1 16.1 61 48 5.3 41.6